createdAt,value
2022-09-16T00:00:05.412Z,1.60
2022-09-16T00:02:31.774Z,1.15
2022-09-16T00:05:00.564Z,1.42
2022-09-16T00:07:26.917Z,1.80
2022-09-16T00:09:53.264Z,1.60
2022-09-16T00:12:19.579Z,1.42
2022-09-16T00:14:48.877Z,1.35
2022-09-16T00:17:15.334Z,1.55
2022-09-16T00:19:41.746Z,1.38
2022-09-16T00:22:08.078Z,1.77
2022-09-16T00:24:34.423Z,1.80
2022-09-16T00:27:00.986Z,1.85
2022-09-16T00:29:27.296Z,1.42
2022-09-16T00:31:53.702Z,1.85
2022-09-16T00:34:20.139Z,2.33
2022-09-16T00:36:46.483Z,1.63
2022-09-16T00:39:12.861Z,2.00
2022-09-16T00:41:39.144Z,1.77
2022-09-16T00:44:06.693Z,1.85
2022-09-16T00:46:51.150Z,1.60
2022-09-16T00:49:20.444Z,2.05
2022-09-16T00:51:49.682Z,1.88
2022-09-16T00:54:17.433Z,1.60
2022-09-16T00:56:44.752Z,2.05
2022-09-16T00:59:11.041Z,1.85
2022-09-16T01:01:38.622Z,1.85
2022-09-16T01:04:12.915Z,1.45
2022-09-16T01:06:40.017Z,1.85
2022-09-16T01:09:06.421Z,1.98
2022-09-16T01:11:32.860Z,2.03
2022-09-16T01:14:20.104Z,1.83
2022-09-16T01:16:50.232Z,1.88
2022-09-16T01:19:29.044Z,1.70
2022-09-16T01:21:55.335Z,2.00
2022-09-16T01:24:40.531Z,1.88
2022-09-16T01:27:30.263Z,1.80
2022-09-16T01:30:02.911Z,2.13
2022-09-16T01:32:29.240Z,2.08
2022-09-16T01:34:58.720Z,2.15
2022-09-16T01:37:25.089Z,1.60
2022-09-16T01:40:04.079Z,2.58
2022-09-16T01:42:41.650Z,2.00
2022-09-16T01:45:18.956Z,2.03
2022-09-16T01:47:51.465Z,1.95
2022-09-16T01:50:17.777Z,1.90
2022-09-16T01:52:58.311Z,2.15
2022-09-16T01:55:36.300Z,1.77
2022-09-16T01:58:23.556Z,2.30
2022-09-16T02:00:51.921Z,2.10
2022-09-16T02:03:25.325Z,1.95
2022-09-16T02:05:59.548Z,1.95
2022-09-16T02:08:46.651Z,1.90
2022-09-16T02:11:15.037Z,1.92
2022-09-16T02:13:42.900Z,1.88
2022-09-16T02:16:15.819Z,1.90
2022-09-16T02:18:42.773Z,1.83
2022-09-16T02:21:11.527Z,1.98
2022-09-16T02:23:40.049Z,1.65
2022-09-16T02:26:08.220Z,2.03
2022-09-16T02:28:36.723Z,2.35
2022-09-16T02:31:05.965Z,2.08
2022-09-16T02:33:42.199Z,2.17
2022-09-16T02:36:08.969Z,1.95
2022-09-16T02:38:40.203Z,1.85
2022-09-16T02:41:06.763Z,2.00
2022-09-16T02:43:33.186Z,1.80
2022-09-16T02:46:08.590Z,1.98
2022-09-16T02:48:46.313Z,2.20
2022-09-16T02:51:12.868Z,1.90
2022-09-16T02:53:46.372Z,1.80
2022-09-16T02:56:32.539Z,2.13
2022-09-16T02:58:59.253Z,2.20
2022-09-16T03:01:26.052Z,1.90
2022-09-16T03:03:55.436Z,1.77
2022-09-16T03:06:25.736Z,1.83
2022-09-16T03:08:54.118Z,1.80
2022-09-16T03:11:20.824Z,1.58
2022-09-16T03:14:04.265Z,1.75
2022-09-16T03:16:36.366Z,1.65
2022-09-16T03:19:21.315Z,1.65
2022-09-16T03:22:02.391Z,1.67
2022-09-16T03:24:42.971Z,1.65
2022-09-16T03:27:12.179Z,1.35
2022-09-16T03:29:40.600Z,1.48
2022-09-16T03:32:18.998Z,1.42
2022-09-16T03:34:48.825Z,1.40
2022-09-16T03:37:16.741Z,1.33
2022-09-16T03:39:47.847Z,1.50
2022-09-16T03:42:14.254Z,1.60
2022-09-16T03:44:40.817Z,1.63
2022-09-16T03:47:07.818Z,1.27
2022-09-16T03:49:34.468Z,1.65
2022-09-16T03:52:01.422Z,1.80
2022-09-16T03:54:27.884Z,1.70
2022-09-16T03:56:54.341Z,1.58
2022-09-16T03:59:20.820Z,1.52
2022-09-16T04:01:47.272Z,1.65
2022-09-16T04:04:13.800Z,1.70
2022-09-16T04:06:40.269Z,1.48
2022-09-16T04:09:08.170Z,1.88
2022-09-16T04:11:35.234Z,1.70
2022-09-16T04:14:01.684Z,1.60
2022-09-16T04:16:28.142Z,1.83
2022-09-16T04:18:54.495Z,1.75
2022-09-16T04:21:21.094Z,1.52
2022-09-16T04:23:48.589Z,1.30
2022-09-16T04:26:15.119Z,1.48
2022-09-16T04:28:41.560Z,1.60
2022-09-16T04:31:10.291Z,1.60
2022-09-16T04:33:36.924Z,1.80
2022-09-16T04:36:03.277Z,1.85
2022-09-16T04:38:30.100Z,1.92
2022-09-16T04:41:01.190Z,1.58
2022-09-16T04:43:27.595Z,1.52
2022-09-16T04:45:54.400Z,1.55
2022-09-16T04:48:20.913Z,1.70
2022-09-16T04:50:47.457Z,1.70
2022-09-16T04:53:14.430Z,1.60
2022-09-16T04:55:40.817Z,1.60
2022-09-16T04:58:07.181Z,1.67
2022-09-16T05:00:33.596Z,1.80
2022-09-16T05:03:03.450Z,1.60
2022-09-16T05:05:30.170Z,1.90
2022-09-16T05:07:56.583Z,2.60
2022-09-16T05:10:22.940Z,1.70
2022-09-16T05:12:53.135Z,1.40
2022-09-16T05:15:20.092Z,1.90
2022-09-16T05:17:51.335Z,1.67
2022-09-16T05:20:18.292Z,1.55
2022-09-16T05:22:44.722Z,1.50
2022-09-16T05:25:11.132Z,1.40
2022-09-16T05:27:37.561Z,1.60
2022-09-16T05:30:04.110Z,1.70
2022-09-16T05:32:31.039Z,2.00
2022-09-16T05:34:57.575Z,1.48
2022-09-16T05:37:23.978Z,1.60
2022-09-16T05:39:50.362Z,1.63
2022-09-16T05:42:16.757Z,2.30
2022-09-16T05:44:43.113Z,1.45
2022-09-16T05:47:09.468Z,1.55
2022-09-16T05:49:35.990Z,1.55
2022-09-16T05:52:02.704Z,1.98
2022-09-16T05:54:29.065Z,1.48
2022-09-16T05:56:55.370Z,1.50
2022-09-16T05:59:23.526Z,1.10
2022-09-16T06:01:50.301Z,1.38
2022-09-16T06:04:16.726Z,1.60
2022-09-16T06:06:44.464Z,1.13
2022-09-16T06:09:12.284Z,1.17
2022-09-16T06:11:43.062Z,1.38
2022-09-16T06:14:10.129Z,1.02
2022-09-16T06:16:37.271Z,1.13
2022-09-16T06:19:05.326Z,1.30
2022-09-16T06:21:31.739Z,1.08
2022-09-16T06:23:58.077Z,0.98
2022-09-16T06:26:25.965Z,1.05
2022-09-16T06:28:52.893Z,0.98
2022-09-16T06:31:19.251Z,1.02
2022-09-16T06:33:46.045Z,1.08
2022-09-16T06:36:17.773Z,1.00
2022-09-16T06:38:45.087Z,1.00
2022-09-16T06:41:12.143Z,0.80
2022-09-16T06:43:38.994Z,0.90
2022-09-16T06:46:10.266Z,1.08
2022-09-16T06:48:36.779Z,1.25
2022-09-16T06:51:04.557Z,1.00
2022-09-16T06:53:31.398Z,0.80
2022-09-16T06:56:05.516Z,0.77
2022-09-16T06:58:32.690Z,0.77
2022-09-16T07:00:59.574Z,0.95
2022-09-16T07:03:25.994Z,0.93
2022-09-16T07:06:00.305Z,1.10
2022-09-16T07:08:27.930Z,0.90
2022-09-16T07:10:58.205Z,0.80
2022-09-16T07:13:24.766Z,0.90
2022-09-16T07:16:11.905Z,0.95
2022-09-16T07:18:37.790Z,1.00
2022-09-16T07:21:11.616Z,0.85
2022-09-16T07:23:38.774Z,0.70
2022-09-16T07:26:12.362Z,0.98
2022-09-16T07:28:39.413Z,1.08
2022-09-16T07:31:07.095Z,1.20
2022-09-16T07:33:37.659Z,1.33
2022-09-16T07:36:05.326Z,1.42
2022-09-16T07:38:32.247Z,1.40
2022-09-16T07:41:25.617Z,1.52
2022-09-16T07:43:53.781Z,1.67
2022-09-16T07:46:20.538Z,1.30
2022-09-16T07:48:47.987Z,1.20
2022-09-16T07:51:16.615Z,1.50
2022-09-16T07:53:43.513Z,1.25
2022-09-16T07:56:14.193Z,1.33
2022-09-16T07:58:42.327Z,1.10
2022-09-16T08:01:08.982Z,1.70
2022-09-16T08:03:36.146Z,0.90
2022-09-16T08:06:06.871Z,1.15
2022-09-16T08:08:33.775Z,1.30
2022-09-16T08:11:00.705Z,1.17
2022-09-16T08:13:29.221Z,1.45
2022-09-16T08:15:55.849Z,1.15
2022-09-16T08:18:22.330Z,1.27
2022-09-16T08:20:48.841Z,1.50
2022-09-16T08:23:15.188Z,1.55
2022-09-16T08:25:44.492Z,1.00
2022-09-16T08:28:14.851Z,1.10
2022-09-16T08:30:41.564Z,1.00
2022-09-16T08:33:08.006Z,0.93
2022-09-16T08:35:34.587Z,1.10
2022-09-16T08:38:01.722Z,0.90
2022-09-16T08:40:32.367Z,1.13
2022-09-16T08:43:12.805Z,1.00
2022-09-16T08:45:42.034Z,1.13
2022-09-16T08:48:15.094Z,1.38
2022-09-16T08:50:43.016Z,1.10
2022-09-16T08:53:16.129Z,1.40
2022-09-16T08:55:46.868Z,1.17
2022-09-16T08:58:15.362Z,1.17
2022-09-16T09:00:47.504Z,1.10
2022-09-16T09:03:33.030Z,1.08
2022-09-16T09:06:01.600Z,1.40
2022-09-16T09:08:30.756Z,0.90
2022-09-16T09:11:06.393Z,1.10
2022-09-16T09:16:17.708Z,0.80
2022-09-16T09:18:49.226Z,0.90
2022-09-16T09:21:18.849Z,1.05
2022-09-16T09:23:50.979Z,1.33
2022-09-16T09:26:22.352Z,1.05
2022-09-16T09:28:58.070Z,1.92
2022-09-16T09:33:50.813Z,0.80
2022-09-16T09:36:35.990Z,0.90
2022-09-16T09:39:17.776Z,0.90
2022-09-16T09:41:47.418Z,0.90
2022-09-16T09:44:32.670Z,1.00
2022-09-16T09:47:02.064Z,0.90
2022-09-16T09:49:33.939Z,1.00
2022-09-16T09:52:19.404Z,1.00
2022-09-16T09:54:49.625Z,1.08
2022-09-16T09:57:37.074Z,1.00
2022-09-16T10:00:15.998Z,1.15
2022-09-16T10:02:48.894Z,1.20
2022-09-16T10:05:16.119Z,0.95
2022-09-16T10:07:42.526Z,1.08
2022-09-16T10:10:16.682Z,1.25
2022-09-16T10:12:43.184Z,0.80
2022-09-16T10:15:23.539Z,1.10
2022-09-16T10:17:51.339Z,0.82
2022-09-16T10:20:33.243Z,0.90
2022-09-16T10:23:06.082Z,0.80
2022-09-16T10:25:33.311Z,0.90
2022-09-16T10:28:01.408Z,0.80
2022-09-16T10:30:29.320Z,0.98
2022-09-16T10:32:58.206Z,0.70
2022-09-16T10:35:27.352Z,0.60
2022-09-16T10:37:53.840Z,0.60
2022-09-16T10:40:22.975Z,1.05
2022-09-16T10:42:53.510Z,0.60
2022-09-16T10:45:27.748Z,0.60
2022-09-16T10:47:55.526Z,0.60
2022-09-16T10:50:22.150Z,0.75
2022-09-16T10:52:49.381Z,0.73
2022-09-16T10:55:23.809Z,1.13
2022-09-16T10:57:50.533Z,0.95
2022-09-16T11:00:20.878Z,1.00
2022-09-16T11:02:50.231Z,1.30
2022-09-16T11:05:25.440Z,1.00
2022-09-16T11:07:52.566Z,0.80
2022-09-16T11:10:38.126Z,0.93
2022-09-16T11:13:23.365Z,1.00
2022-09-16T11:16:08.877Z,0.70
2022-09-16T11:18:49.352Z,0.88
2022-09-16T11:21:18.862Z,0.98
2022-09-16T11:23:57.856Z,0.80
2022-09-16T11:26:39.492Z,1.00
2022-09-16T11:29:34.498Z,0.88
2022-09-16T11:32:23.834Z,0.75
2022-09-16T11:35:29.229Z,0.80
2022-09-16T11:37:58.296Z,0.80
2022-09-16T11:40:47.071Z,0.63
2022-09-16T11:43:33.418Z,1.00
2022-09-16T11:45:59.848Z,1.27
2022-09-16T11:48:51.919Z,0.82
2022-09-16T11:51:24.640Z,0.90
2022-09-16T11:54:09.454Z,0.70
2022-09-16T11:56:45.055Z,0.38
2022-09-16T11:59:14.508Z,0.68
2022-09-16T12:01:45.861Z,0.57
2022-09-16T12:04:15.355Z,0.70
2022-09-16T12:06:53.986Z,0.60
2022-09-16T12:09:25.901Z,1.08
2022-09-16T12:11:54.753Z,0.52
2022-09-16T12:14:24.944Z,0.50
2022-09-16T12:16:54.468Z,0.40
2022-09-16T12:19:29.184Z,0.45
2022-09-16T12:22:01.475Z,0.40
2022-09-16T12:24:40.242Z,0.30
2022-09-16T12:27:25.297Z,0.40
2022-09-16T12:30:02.162Z,0.38
2022-09-16T12:32:39.036Z,0.40
2022-09-16T12:35:12.796Z,0.45
2022-09-16T12:37:42.313Z,0.60
2022-09-16T12:40:15.838Z,0.40
2022-09-16T12:43:00.498Z,0.40
2022-09-16T12:45:41.913Z,0.55
2022-09-16T12:48:08.300Z,0.52
2022-09-16T12:50:47.614Z,0.55
2022-09-16T12:53:33.136Z,0.77
2022-09-16T12:55:59.586Z,0.55
2022-09-16T12:58:28.921Z,0.47
2022-09-16T13:00:58.295Z,0.40
2022-09-16T13:03:27.756Z,0.60
2022-09-16T13:05:55.295Z,0.60
2022-09-16T13:08:32.738Z,0.40
2022-09-16T13:11:39.968Z,0.60
2022-09-16T13:13:54.060Z,0.52
2022-09-16T13:16:27.899Z,0.77
2022-09-16T13:19:05.839Z,0.60
2022-09-16T13:21:39.683Z,0.50
2022-09-16T13:24:13.109Z,0.50
2022-09-16T13:26:43.961Z,0.80
2022-09-16T13:29:25.753Z,0.63
2022-09-16T13:31:52.362Z,0.50
2022-09-16T13:34:19.590Z,0.60
2022-09-16T13:36:46.014Z,0.68
2022-09-16T13:39:14.180Z,0.52
2022-09-16T13:41:45.400Z,0.60
2022-09-16T13:44:30.616Z,0.65
2022-09-16T13:47:09.209Z,1.00
2022-09-16T13:49:41.658Z,0.68
2022-09-16T13:52:12.610Z,0.68
2022-09-16T13:55:06.176Z,0.70
2022-09-16T13:57:29.482Z,0.70
2022-09-16T14:02:30.333Z,0.63
2022-09-16T14:05:36.604Z,0.68
2022-09-16T14:08:02.921Z,0.70
2022-09-16T14:10:47.627Z,0.65
2022-09-16T14:13:18.564Z,0.60
2022-09-16T14:15:49.319Z,0.50
2022-09-16T14:18:17.973Z,0.60
2022-09-16T14:21:13.920Z,0.50
2022-09-16T14:23:40.338Z,0.60
2022-09-16T14:26:20.170Z,0.40
2022-09-16T14:28:46.656Z,0.70
2022-09-16T14:31:15.371Z,0.57
2022-09-16T14:33:44.439Z,0.50
2022-09-16T14:36:13.519Z,0.50
2022-09-16T14:38:53.369Z,0.50
2022-09-16T14:41:23.397Z,0.80
2022-09-16T14:43:50.324Z,0.45
2022-09-16T14:46:17.317Z,0.60
2022-09-16T14:48:43.995Z,0.98
2022-09-16T14:51:16.555Z,0.63
2022-09-16T14:53:55.508Z,0.90
2022-09-16T14:56:29.213Z,0.60
2022-09-16T14:58:57.240Z,0.50
2022-09-16T15:01:28.154Z,0.50
2022-09-16T15:03:54.660Z,0.60
2022-09-16T15:06:22.896Z,0.50
2022-09-16T15:09:28.568Z,0.60
2022-09-16T15:11:59.082Z,0.65
2022-09-16T15:14:25.800Z,0.60
2022-09-16T15:16:56.071Z,0.50
2022-09-16T15:19:25.176Z,0.55
2022-09-16T15:21:52.184Z,0.82
2022-09-16T15:24:24.935Z,0.90
2022-09-16T15:26:51.472Z,0.70
2022-09-16T15:29:17.841Z,0.70
2022-09-16T15:31:44.986Z,0.88
2022-09-16T15:34:20.697Z,0.77
2022-09-16T15:46:32.143Z,0.73
2022-09-16T15:48:59.595Z,0.63
2022-09-16T15:51:32.214Z,0.70
2022-09-16T15:54:18.987Z,0.70
2022-09-16T15:56:57.924Z,0.68
2022-09-16T15:59:30.552Z,0.60
2022-09-16T16:02:00.703Z,0.70
2022-09-16T16:04:29.653Z,0.75
2022-09-16T16:06:57.695Z,0.70
2022-09-16T16:09:23.991Z,0.55
2022-09-16T16:11:50.860Z,0.60
2022-09-16T16:14:17.293Z,0.60
2022-09-16T16:17:08.663Z,0.63
2022-09-16T16:19:30.599Z,0.60
2022-09-16T16:21:57.294Z,0.80
2022-09-16T16:24:24.588Z,0.60
2022-09-16T16:26:56.091Z,0.90
2022-09-16T16:29:23.536Z,0.60
2022-09-16T16:31:58.987Z,0.63
2022-09-16T16:34:25.371Z,0.80
2022-09-16T16:36:51.749Z,0.70
2022-09-16T16:39:18.104Z,0.60
2022-09-16T16:41:44.477Z,0.47
2022-09-16T16:44:10.832Z,0.50
2022-09-16T16:46:37.550Z,0.70
2022-09-16T16:49:04.956Z,0.45
2022-09-16T16:51:31.338Z,0.63
2022-09-16T16:53:57.937Z,0.90
2022-09-16T16:56:24.398Z,0.70
2022-09-16T16:58:50.743Z,0.70
2022-09-16T17:01:18.681Z,0.68
2022-09-16T17:03:46.363Z,0.90
2022-09-16T17:06:13.783Z,0.90
2022-09-16T17:08:40.468Z,0.70
2022-09-16T17:11:10.212Z,0.65
2022-09-16T17:13:37.356Z,1.00
2022-09-16T17:16:04.301Z,0.80
2022-09-16T17:18:30.816Z,0.65
2022-09-16T17:21:04.599Z,0.88
2022-09-16T17:23:31.042Z,0.90
2022-09-16T17:25:57.378Z,0.90
2022-09-16T17:28:23.703Z,1.02
2022-09-16T17:30:50.193Z,1.10
2022-09-16T17:33:16.704Z,1.00
2022-09-16T17:35:43.133Z,1.27
2022-09-16T17:38:09.945Z,1.30
2022-09-16T17:40:36.450Z,1.05
2022-09-16T17:43:02.959Z,1.13
2022-09-16T17:45:29.440Z,1.08
2022-09-16T17:47:57.767Z,1.10
2022-09-16T17:50:24.090Z,1.48
2022-09-16T17:52:50.515Z,1.20
2022-09-16T17:55:16.871Z,1.20
2022-09-16T17:57:43.323Z,0.80
2022-09-16T18:00:10.199Z,0.98
2022-09-16T18:02:36.651Z,1.10
2022-09-16T18:05:03.873Z,1.10
2022-09-16T18:07:30.306Z,0.98
2022-09-16T18:09:56.648Z,1.20
2022-09-16T18:12:23.248Z,1.00
2022-09-16T18:14:49.742Z,1.00
2022-09-16T18:17:16.794Z,1.13
2022-09-16T18:19:43.154Z,1.20
2022-09-16T18:22:09.484Z,0.98
2022-09-16T18:24:35.790Z,1.15
2022-09-16T18:27:02.531Z,1.20
2022-09-16T18:29:30.158Z,1.10
2022-09-16T18:31:56.489Z,1.20
2022-09-16T18:34:23.834Z,1.08
2022-09-16T18:36:50.256Z,1.10
2022-09-16T18:39:17.175Z,1.17
2022-09-16T18:41:44.899Z,1.00
2022-09-16T18:44:16.207Z,0.80
2022-09-16T18:46:42.955Z,0.90
2022-09-16T18:49:11.063Z,0.80
2022-09-16T18:51:38.674Z,1.15
2022-09-16T18:54:06.233Z,0.80
2022-09-16T18:56:34.116Z,0.80
2022-09-16T18:59:21.642Z,1.08
2022-09-16T19:01:48.790Z,0.82
2022-09-16T19:04:17.831Z,0.90
2022-09-16T19:06:48.369Z,1.55
2022-09-16T19:09:16.356Z,1.13
2022-09-16T19:11:43.067Z,1.10
2022-09-16T19:14:11.378Z,1.35
2022-09-16T19:16:40.482Z,1.20
2022-09-16T19:19:07.500Z,0.90
2022-09-16T19:21:34.173Z,1.15
2022-09-16T19:24:02.983Z,1.13
2022-09-16T19:26:31.228Z,1.20
2022-09-16T19:28:58.549Z,1.25
2022-09-16T19:31:25.036Z,1.30
2022-09-16T19:33:51.355Z,1.20
2022-09-16T19:36:22.037Z,1.10
2022-09-16T19:38:49.079Z,1.30
2022-09-16T19:41:16.168Z,0.77
2022-09-16T19:43:42.515Z,1.20
2022-09-16T19:46:12.824Z,0.70
2022-09-16T19:48:40.307Z,0.90
2022-09-16T19:51:08.092Z,1.20
2022-09-16T19:53:35.342Z,1.23
2022-09-16T19:56:08.880Z,1.20
2022-09-16T19:58:35.983Z,1.45
2022-09-16T20:01:10.015Z,1.15
2022-09-16T20:03:37.530Z,1.00
2022-09-16T20:06:08.088Z,1.17
2022-09-16T20:08:35.732Z,1.13
2022-09-16T20:11:22.320Z,1.00
2022-09-16T20:13:49.719Z,1.30
2022-09-16T20:16:17.068Z,1.25
2022-09-16T20:18:43.747Z,1.70
2022-09-16T20:21:11.252Z,1.20
2022-09-16T20:23:38.096Z,1.38
2022-09-16T20:26:06.214Z,1.48
2022-09-16T20:28:32.603Z,1.58
2022-09-16T20:30:59.112Z,1.65
2022-09-16T20:33:28.948Z,1.45
2022-09-16T20:36:11.704Z,1.58
2022-09-16T20:38:38.842Z,1.83
2022-09-16T20:41:06.128Z,1.90
2022-09-16T20:43:32.875Z,2.20
2022-09-16T20:46:05.335Z,1.67
2022-09-16T20:48:31.856Z,2.08
2022-09-16T20:51:02.718Z,1.70
2022-09-16T20:53:29.004Z,1.98
2022-09-16T20:56:02.035Z,1.98
2022-09-16T20:58:28.419Z,1.83
2022-09-16T21:00:54.769Z,1.80
2022-09-16T21:03:21.219Z,1.75
2022-09-16T21:05:47.532Z,1.83
2022-09-16T21:08:13.811Z,1.80
2022-09-16T21:10:42.320Z,1.80
2022-09-16T21:13:08.676Z,2.10
2022-09-16T21:15:35.068Z,1.80
2022-09-16T21:18:01.385Z,2.22
2022-09-16T21:20:27.789Z,2.13
2022-09-16T21:22:54.132Z,1.90
2022-09-16T21:25:20.448Z,1.90
2022-09-16T21:27:46.834Z,2.10
2022-09-16T21:30:13.824Z,1.80
2022-09-16T21:32:40.147Z,2.28
2022-09-16T21:35:06.553Z,2.08
2022-09-16T21:37:34.021Z,1.90
2022-09-16T21:40:00.592Z,1.90
2022-09-16T21:42:26.980Z,2.03
2022-09-16T21:44:58.197Z,1.70
2022-09-16T21:47:24.553Z,1.90
2022-09-16T21:49:52.052Z,1.65
2022-09-16T21:52:18.586Z,1.60
2022-09-16T21:54:44.876Z,1.85
2022-09-16T21:57:11.176Z,1.75
2022-09-16T21:59:37.593Z,1.50
2022-09-16T22:02:04.207Z,1.60
2022-09-16T22:04:30.610Z,1.50
2022-09-16T22:06:57.020Z,1.40
2022-09-16T22:09:23.566Z,1.30
2022-09-16T22:11:49.966Z,1.70
2022-09-16T22:14:16.404Z,1.67
2022-09-16T22:16:42.785Z,1.63
2022-09-16T22:19:11.216Z,1.48
2022-09-16T22:21:38.753Z,1.40
2022-09-16T22:24:05.541Z,1.05
2022-09-16T22:26:32.137Z,1.48
2022-09-16T22:28:58.822Z,1.50
2022-09-16T22:31:32.075Z,1.60
2022-09-16T22:33:59.524Z,1.67
2022-09-16T22:36:27.093Z,1.73
2022-09-16T22:38:54.512Z,1.52
2022-09-16T22:41:21.317Z,1.50
2022-09-16T22:43:48.334Z,1.48
2022-09-16T22:46:19.069Z,1.50
2022-09-16T22:48:45.931Z,1.73
2022-09-16T22:51:13.363Z,1.38
2022-09-16T22:53:40.281Z,1.48
2022-09-16T22:56:09.316Z,1.50
2022-09-16T22:58:35.941Z,1.48
2022-09-16T23:01:04.260Z,1.30
2022-09-16T23:03:30.990Z,1.30
2022-09-16T23:05:58.578Z,1.23
2022-09-16T23:08:25.451Z,1.13
2022-09-16T23:10:52.330Z,1.52
2022-09-16T23:13:18.936Z,1.30
2022-09-16T23:15:45.732Z,1.20
2022-09-16T23:18:12.111Z,1.20
2022-09-16T23:20:38.502Z,1.45
2022-09-16T23:23:05.071Z,1.40
2022-09-16T23:25:31.371Z,1.30
2022-09-16T23:27:58.121Z,1.25
2022-09-16T23:30:24.442Z,1.25
2022-09-16T23:32:50.780Z,1.60
2022-09-16T23:35:17.320Z,1.30
2022-09-16T23:37:43.721Z,1.30
2022-09-16T23:40:10.316Z,1.08
2022-09-16T23:42:37.258Z,1.00
2022-09-16T23:45:04.347Z,1.10
2022-09-16T23:47:30.759Z,1.60
2022-09-16T23:49:57.135Z,1.23
2022-09-16T23:52:23.455Z,1.20
2022-09-16T23:54:49.805Z,1.15
2022-09-16T23:57:16.113Z,1.23
2022-09-16T23:59:42.530Z,0.90
